Time;durP1;ratioP1;P1;durP2;ratioP2;P2;SDS_P1;SDS_P2;PMS_P1;PMS_P2;Temp;Humidity;BMP_temperature;BMP_pressure;BME280_temperature;BME280_humidity;BME280_pressure;Samples;Min_cycle;Max_cycle;Signal;HPM_P1;HPM_P2
2023/12/22 00:00:36;;;;;;;14.90;3.30;;;7.10;99.90;;;;;;5008711;28;20400;-65
2023/12/22 00:03:03;;;;;;;11.40;2.90;;;7.20;99.90;;;;;;5008838;28;20072;-65
2023/12/22 00:05:29;;;;;;;14.50;3.45;;;7.20;99.90;;;;;;5007752;28;20053;-66
2023/12/22 00:07:55;;;;;;;15.35;2.70;;;7.20;99.90;;;;;;5008856;28;20366;-66
2023/12/22 00:10:22;;;;;;;15.85;3.05;;;7.20;99.90;;;;;;5000328;28;20054;-67
2023/12/22 00:12:49;;;;;;;13.25;2.90;;;7.10;99.90;;;;;;4999368;28;20084;-67
2023/12/22 00:15:15;;;;;;;17.15;2.88;;;7.20;99.90;;;;;;5007489;28;20054;-66
2023/12/22 00:17:41;;;;;;;11.77;3.35;;;7.20;99.90;;;;;;4991606;28;20477;-66
2023/12/22 00:20:13;;;;;;;14.05;2.50;;;7.10;99.90;;;;;;5008317;28;20065;-66
2023/12/22 00:22:39;;;;;;;10.20;2.65;;;7.10;99.90;;;;;;5007357;28;20363;-66
2023/12/22 00:25:07;;;;;;;11.27;2.78;;;7.10;99.90;;;;;;5005668;28;20073;-66
2023/12/22 00:27:34;;;;;;;13.75;3.38;;;7.00;99.90;;;;;;5007760;28;20054;-66
2023/12/22 00:30:01;;;;;;;13.68;2.95;;;7.00;99.90;;;;;;5007902;28;20141;-65
2023/12/22 00:32:27;;;;;;;13.30;2.58;;;7.00;99.90;;;;;;5007921;28;20050;-66
2023/12/22 00:34:54;;;;;;;9.75;2.65;;;7.00;99.90;;;;;;5006911;28;20064;-66
2023/12/22 00:37:20;;;;;;;11.13;3.03;;;6.90;99.90;;;;;;5007356;28;20062;-66
2023/12/22 00:39:46;;;;;;;11.38;3.08;;;6.90;99.90;;;;;;5007247;28;20050;-66
2023/12/22 00:42:13;;;;;;;17.13;4.13;;;6.90;99.90;;;;;;5007134;28;20500;-66
2023/12/22 00:44:40;;;;;;;16.63;3.88;;;6.90;99.90;;;;;;4990679;28;20054;-66
2023/12/22 00:47:06;;;;;;;13.88;3.50;;;6.80;99.90;;;;;;5007149;28;20057;-66
2023/12/22 00:49:33;;;;;;;18.08;4.22;;;6.90;99.90;;;;;;5008721;28;20087;-65
2023/12/22 00:51:59;;;;;;;13.70;2.92;;;6.90;99.90;;;;;;5008598;28;20056;-66
2023/12/22 00:54:30;;;;;;;17.75;3.28;;;7.00;99.90;;;;;;5007317;28;20396;-65
2023/12/22 00:56:56;;;;;;;13.23;2.85;;;7.00;99.90;;;;;;5007488;28;20054;-66
2023/12/22 00:59:22;;;;;;;13.45;3.00;;;7.00;99.90;;;;;;5007479;28;20064;-66
2023/12/22 01:01:49;;;;;;;15.20;3.45;;;7.00;99.90;;;;;;5007108;28;20149;-66
2023/12/22 01:04:15;;;;;;;13.90;3.78;;;7.00;99.90;;;;;;5007027;28;20129;-66
2023/12/22 01:06:41;;;;;;;12.02;2.90;;;7.00;99.90;;;;;;5007029;28;20042;-66
2023/12/22 01:09:08;;;;;;;18.02;3.55;;;7.10;99.90;;;;;;5006817;28;20386;-66
2023/12/22 01:11:34;;;;;;;11.23;3.08;;;7.10;99.90;;;;;;5011101;28;20105;-66
2023/12/22 01:14:00;;;;;;;12.57;2.97;;;7.10;99.90;;;;;;5012213;28;20068;-65
2023/12/22 01:16:27;;;;;;;12.88;3.03;;;7.10;99.90;;;;;;5010727;28;20070;-65
2023/12/22 01:18:53;;;;;;;13.52;2.53;;;7.10;99.90;;;;;;5012533;28;20057;-66
2023/12/22 01:21:19;;;;;;;11.43;2.97;;;7.20;99.90;;;;;;5010962;28;20057;-66
2023/12/22 01:23:46;;;;;;;11.75;2.42;;;7.20;99.90;;;;;;5010833;28;20402;-66
2023/12/22 01:26:13;;;;;;;13.63;2.63;;;7.20;99.90;;;;;;5010713;28;20056;-66
2023/12/22 01:28:39;;;;;;;10.50;2.65;;;7.20;99.90;;;;;;5011961;28;20366;-66
2023/12/22 01:31:06;;;;;;;12.73;2.45;;;7.10;99.90;;;;;;5012079;28;20071;-66
2023/12/22 01:33:32;;;;;;;8.85;2.40;;;7.10;99.90;;;;;;5011976;28;20065;-65
2023/12/22 01:35:58;;;;;;;14.27;3.88;;;7.10;99.90;;;;;;5010826;28;20454;-65
2023/12/22 01:38:24;;;;;;;9.32;2.90;;;7.10;99.90;;;;;;5011681;28;20145;-66
2023/12/22 01:40:51;;;;;;;11.38;3.35;;;7.10;99.90;;;;;;5011945;28;20064;-66
2023/12/22 01:43:21;;;;;;;8.80;2.90;;;7.00;99.90;;;;;;5011608;28;20054;-66
2023/12/22 01:45:51;;;;;;;11.85;2.63;;;7.10;99.90;;;;;;5009763;28;20053;-66
2023/12/22 01:48:24;;;;;;;13.15;3.72;;;7.00;99.90;;;;;;5010521;28;20198;-66
2023/12/22 01:50:52;;;;;;;12.95;3.17;;;6.90;99.90;;;;;;5010067;28;20041;-66
2023/12/22 01:53:20;;;;;;;13.23;3.03;;;6.80;99.90;;;;;;4994250;28;20052;-66
2023/12/22 01:55:50;;;;;;;14.38;2.95;;;6.80;99.90;;;;;;4992761;28;20054;-66
2023/12/22 01:58:18;;;;;;;10.73;3.05;;;6.70;99.90;;;;;;5026628;28;20137;-66
2023/12/22 02:00:46;;;;;;;12.23;2.50;;;6.70;99.90;;;;;;5026891;28;20070;-66
2023/12/22 02:03:14;;;;;;;11.25;2.80;;;6.70;99.90;;;;;;5010024;28;20050;-66
2023/12/22 02:05:44;;;;;;;14.27;2.90;;;6.60;99.90;;;;;;4993376;28;20057;-66
2023/12/22 02:08:11;;;;;;;16.08;2.85;;;6.60;99.90;;;;;;5009980;28;20053;-66
2023/12/22 02:10:38;;;;;;;12.57;2.63;;;6.50;99.90;;;;;;5010893;28;20061;-66
2023/12/22 02:13:05;;;;;;;11.25;3.33;;;6.50;99.90;;;;;;5010159;28;20143;-66
2023/12/22 02:15:32;;;;;;;11.25;2.20;;;6.50;99.90;;;;;;5010501;28;20064;-64
2023/12/22 02:18:07;;;;;;;10.93;2.28;;;6.40;99.90;;;;;;5010095;28;20073;-66
2023/12/22 02:20:34;;;;;;;7.45;2.28;;;6.40;99.90;;;;;;5010089;28;20144;-65
2023/12/22 02:23:00;;;;;;;11.75;2.33;;;6.30;99.90;;;;;;5009460;28;20057;-65
2023/12/22 02:25:27;;;;;;;8.98;2.72;;;6.40;99.90;;;;;;4992783;28;20366;-66
2023/12/22 02:28:01;;;;;;;7.10;1.90;;;6.40;99.90;;;;;;5009899;28;20045;-64
2023/12/22 02:30:58;;;;;;;5.32;1.58;;;5.60;99.90;;;;;;4993573;28;20080;-64
2023/12/22 02:33:27;;;;;;;5.07;1.17;;;5.20;99.90;;;;;;5011083;28;20057;-65
2023/12/22 02:35:58;;;;;;;3.60;1.10;;;5.20;99.90;;;;;;5010142;28;20042;-66
2023/12/22 02:38:25;;;;;;;5.57;1.30;;;5.20;99.90;;;;;;5010737;28;20065;-66
2023/12/22 02:40:52;;;;;;;5.63;1.92;;;5.30;99.90;;;;;;5010663;28;20049;-65
2023/12/22 02:43:18;;;;;;;5.03;1.70;;;5.30;99.90;;;;;;5010515;28;20521;-65
2023/12/22 02:45:44;;;;;;;6.63;1.48;;;5.30;99.90;;;;;;5010115;28;20136;-66
2023/12/22 02:48:11;;;;;;;6.97;1.50;;;5.30;99.90;;;;;;5010916;28;20046;-65
2023/12/22 02:50:37;;;;;;;4.40;1.38;;;5.30;99.90;;;;;;5011280;28;20137;-65
2023/12/22 02:53:03;;;;;;;4.78;1.60;;;5.30;99.90;;;;;;5011421;28;20053;-65
2023/12/22 02:55:29;;;;;;;6.25;1.15;;;5.20;99.90;;;;;;5010892;28;20058;-66
2023/12/22 02:57:56;;;;;;;6.35;1.45;;;5.20;99.90;;;;;;5011227;28;20065;-66
2023/12/22 03:00:22;;;;;;;7.90;2.05;;;5.20;99.90;;;;;;5011105;28;20469;-65
2023/12/22 03:02:48;;;;;;;6.88;3.17;;;5.20;99.90;;;;;;5010651;28;20050;-65
2023/12/22 03:05:15;;;;;;;6.80;1.75;;;5.20;99.90;;;;;;5010194;28;20373;-66
2023/12/22 03:07:41;;;;;;;9.75;2.42;;;5.30;99.90;;;;;;5010510;28;20049;-63
2023/12/22 03:10:08;;;;;;;6.32;1.75;;;5.00;99.90;;;;;;5010344;28;20066;-64
2023/12/22 03:12:34;;;;;;;7.07;2.08;;;5.00;99.90;;;;;;5009544;28;20469;-65
2023/12/22 03:15:01;;;;;;;7.10;1.55;;;4.80;99.90;;;;;;4993033;28;20050;-65
2023/12/22 03:17:27;;;;;;;11.57;2.30;;;4.70;99.90;;;;;;5010864;28;20477;-64
2023/12/22 03:19:53;;;;;;;7.28;1.80;;;4.70;99.90;;;;;;5010522;28;20054;-65
2023/12/22 03:22:20;;;;;;;7.57;2.35;;;4.70;99.90;;;;;;5009974;28;20061;-65
2023/12/22 03:24:46;;;;;;;4.63;1.23;;;4.70;99.90;;;;;;5009302;28;20041;-65
2023/12/22 03:27:16;;;;;;;4.47;1.85;;;4.70;99.90;;;;;;5009739;28;20136;-65
2023/12/22 03:29:45;;;;;;;3.45;1.27;;;4.70;99.90;;;;;;5010702;28;20054;-65
2023/12/22 03:32:12;;;;;;;5.78;1.67;;;4.80;99.90;;;;;;5009299;28;20074;-66
2023/12/22 03:34:41;;;;;;;5.82;1.60;;;4.80;99.90;;;;;;5009261;28;20443;-66
2023/12/22 03:37:07;;;;;;;5.75;1.63;;;4.80;99.90;;;;;;5009591;28;20085;-65
2023/12/22 03:39:39;;;;;;;5.97;1.52;;;4.80;99.90;;;;;;5010342;28;20497;-64
2023/12/22 03:42:05;;;;;;;8.02;2.15;;;4.90;99.90;;;;;;5009752;28;20057;-65
2023/12/22 03:44:32;;;;;;;6.25;1.95;;;4.90;99.90;;;;;;5009120;28;20058;-65
2023/12/22 03:46:58;;;;;;;7.40;1.50;;;5.00;99.90;;;;;;5009814;28;20046;-65
2023/12/22 03:49:25;;;;;;;9.75;2.00;;;5.00;99.90;;;;;;5009434;28;20057;-65
2023/12/22 03:51:51;;;;;;;8.45;2.05;;;5.30;99.90;;;;;;5010154;28;20064;-66
2023/12/22 03:54:17;;;;;;;7.25;1.73;;;5.40;99.90;;;;;;5008516;28;20121;-66
2023/12/22 03:56:44;;;;;;;10.45;2.20;;;5.50;99.90;;;;;;5008188;28;20050;-65
2023/12/22 03:59:10;;;;;;;10.15;2.75;;;5.50;99.90;;;;;;5009799;28;20068;-66
2023/12/22 04:01:38;;;;;;;9.52;2.50;;;5.50;99.90;;;;;;5008533;28;20065;-66
2023/12/22 04:04:06;;;;;;;11.52;2.45;;;5.60;99.90;;;;;;4992350;28;20058;-65
2023/12/22 04:06:38;;;;;;;12.93;2.28;;;5.60;99.90;;;;;;4992437;28;20045;-65
2023/12/22 04:09:05;;;;;;;15.25;2.80;;;5.50;99.90;;;;;;4992735;28;20069;-66
2023/12/22 04:11:34;;;;;;;19.30;3.75;;;5.70;99.90;;;;;;4993046;28;20479;-66
2023/12/22 04:14:01;;;;;;;8.95;1.98;;;5.70;99.90;;;;;;4992298;28;20069;-65
2023/12/22 04:16:27;;;;;;;13.15;3.13;;;5.70;99.90;;;;;;5010247;28;20104;-65
2023/12/22 04:18:57;;;;;;;10.32;3.45;;;5.80;99.90;;;;;;5009112;28;20054;-66
2023/12/22 04:21:23;;;;;;;12.73;2.85;;;6.00;99.90;;;;;;5008255;28;20058;-65
2023/12/22 04:23:50;;;;;;;15.38;3.03;;;6.10;99.90;;;;;;4992224;28;20053;-66
2023/12/22 04:26:16;;;;;;;12.98;3.35;;;6.20;99.90;;;;;;4991928;28;20053;-66
2023/12/22 04:28:43;;;;;;;14.93;3.75;;;6.20;99.90;;;;;;5008337;28;20422;-65
2023/12/22 04:31:09;;;;;;;11.57;2.47;;;6.40;99.90;;;;;;5024752;28;20136;-66
2023/12/22 04:33:38;;;;;;;15.48;2.97;;;6.30;99.90;;;;;;5008220;28;20378;-66
2023/12/22 04:36:06;;;;;;;10.45;2.75;;;6.40;99.90;;;;;;5007489;28;20061;-66
2023/12/22 04:38:32;;;;;;;10.10;3.15;;;6.40;99.90;;;;;;5009337;28;20060;-65
2023/12/22 04:40:59;;;;;;;15.02;2.85;;;6.40;99.90;;;;;;5009176;28;20471;-65
2023/12/22 04:43:25;;;;;;;14.90;2.85;;;6.30;99.90;;;;;;5009516;28;20069;-66
2023/12/22 04:45:52;;;;;;;11.35;3.03;;;6.40;99.90;;;;;;5007629;28;20136;-65
2023/12/22 04:48:20;;;;;;;14.30;3.33;;;6.30;99.90;;;;;;5008662;28;20053;-65
2023/12/22 04:50:46;;;;;;;11.05;2.55;;;6.40;99.90;;;;;;5008474;28;20398;-65
2023/12/22 04:53:13;;;;;;;9.75;2.50;;;6.40;99.90;;;;;;5008584;28;20080;-65
2023/12/22 04:55:40;;;;;;;14.45;3.95;;;6.40;99.90;;;;;;5008660;28;20049;-65
2023/12/22 04:58:07;;;;;;;9.35;2.55;;;6.50;99.90;;;;;;5008281;28;20046;-65
2023/12/22 05:00:35;;;;;;;14.13;3.10;;;6.50;99.90;;;;;;5009450;28;20049;-65
2023/12/22 05:03:01;;;;;;;12.25;2.53;;;6.40;99.90;;;;;;5008681;28;20046;-65
2023/12/22 05:05:29;;;;;;;11.15;2.45;;;6.40;99.90;;;;;;4990960;28;20046;-66
2023/12/22 05:07:57;;;;;;;13.82;2.78;;;6.40;99.90;;;;;;5008095;28;20411;-65
2023/12/22 05:10:23;;;;;;;15.02;3.00;;;6.40;99.90;;;;;;5008393;28;20054;-66
2023/12/22 05:12:49;;;;;;;11.07;2.67;;;6.40;99.90;;;;;;5009850;28;20056;-66
2023/12/22 05:15:16;;;;;;;16.88;2.80;;;6.40;99.90;;;;;;5004969;28;20057;-66
2023/12/22 05:17:43;;;;;;;16.27;2.80;;;6.40;99.90;;;;;;4989073;28;20112;-66
2023/12/22 05:20:10;;;;;;;15.15;2.83;;;6.50;99.90;;;;;;4989993;28;20065;-66
2023/12/22 05:22:37;;;;;;;12.85;3.35;;;6.50;99.90;;;;;;4990106;28;20058;-66
2023/12/22 05:25:03;;;;;;;10.75;2.83;;;6.50;99.90;;;;;;4997545;28;20060;-66
2023/12/22 05:27:30;;;;;;;16.20;2.60;;;6.60;99.90;;;;;;5009239;28;20458;-65
2023/12/22 05:30:01;;;;;;;13.85;2.80;;;6.60;99.90;;;;;;5008332;28;20046;-66
2023/12/22 05:32:27;;;;;;;11.45;2.90;;;6.60;99.90;;;;;;5008312;28;20405;-65
2023/12/22 05:34:53;;;;;;;11.57;2.92;;;6.60;99.90;;;;;;5007988;28;20125;-66
2023/12/22 05:37:22;;;;;;;10.35;2.90;;;6.60;99.90;;;;;;5014705;28;20064;-66
2023/12/22 05:39:50;;;;;;;15.40;3.05;;;6.70;99.90;;;;;;5014324;28;20068;-66
2023/12/22 05:42:17;;;;;;;12.48;2.95;;;6.60;99.90;;;;;;5008376;28;20053;-66
2023/12/22 05:44:46;;;;;;;15.52;2.95;;;6.60;99.90;;;;;;5007866;28;20099;-67
2023/12/22 05:47:13;;;;;;;15.10;3.33;;;6.60;99.90;;;;;;5007711;28;20046;-67
2023/12/22 05:49:41;;;;;;;18.63;3.70;;;6.70;99.90;;;;;;5008403;28;20050;-65
2023/12/22 05:52:09;;;;;;;13.40;3.10;;;6.80;99.90;;;;;;5009239;28;20510;-67
2023/12/22 05:54:37;;;;;;;18.67;3.55;;;6.70;99.90;;;;;;5007135;28;20157;-67
2023/12/22 05:57:07;;;;;;;15.27;2.70;;;6.80;99.90;;;;;;5010290;28;20469;-65
2023/12/22 05:59:34;;;;;;;16.48;3.05;;;6.70;99.90;;;;;;5013322;28;20050;-66
2023/12/22 06:02:02;;;;;;;16.40;3.60;;;6.70;99.90;;;;;;4996315;28;20049;-66
2023/12/22 06:04:29;;;;;;;17.08;4.20;;;6.70;99.90;;;;;;5012084;28;20045;-66
2023/12/22 06:06:55;;;;;;;16.27;2.95;;;6.70;99.90;;;;;;5005948;28;20266;-66
2023/12/22 06:09:22;;;;;;;21.08;4.45;;;6.70;99.90;;;;;;5002324;28;20054;-67
2023/12/22 06:11:48;;;;;;;13.13;2.65;;;6.70;99.90;;;;;;4982817;28;20050;-65
2023/12/22 06:14:15;;;;;;;14.23;3.28;;;6.70;99.90;;;;;;5003163;28;20073;-66
2023/12/22 06:16:46;;;;;;;14.13;2.55;;;6.70;99.90;;;;;;5001446;28;20038;-66
2023/12/22 06:19:13;;;;;;;13.05;3.30;;;6.70;99.90;;;;;;4976589;28;20486;-66
2023/12/22 06:21:39;;;;;;;11.73;2.70;;;6.70;99.90;;;;;;5010616;28;20045;-66
2023/12/22 06:24:06;;;;;;;15.15;3.33;;;6.70;99.90;;;;;;4995426;28;20054;-66
2023/12/22 06:26:34;;;;;;;14.63;3.13;;;6.70;99.90;;;;;;5000887;28;20368;-66
2023/12/22 06:29:05;;;;;;;18.50;2.72;;;6.80;99.90;;;;;;4992162;28;20080;-66
2023/12/22 06:31:31;;;;;;;16.52;3.55;;;6.70;99.90;;;;;;5000810;28;20054;-66
2023/12/22 06:34:02;;;;;;;21.25;3.20;;;6.80;99.90;;;;;;4990583;28;20442;-66
2023/12/22 06:36:30;;;;;;;11.88;3.17;;;6.70;99.90;;;;;;5010871;28;20049;-67
2023/12/22 06:38:57;;;;;;;23.77;3.70;;;6.80;99.90;;;;;;5009747;28;20062;-66
2023/12/22 06:41:25;;;;;;;14.93;3.13;;;6.80;99.90;;;;;;4992431;28;20065;-66
2023/12/22 06:43:52;;;;;;;14.60;2.95;;;6.80;99.90;;;;;;5009745;28;20065;-66
2023/12/22 06:46:28;;;;;;;17.10;3.05;;;6.80;99.90;;;;;;5008439;28;20513;-67
2023/12/22 06:48:55;;;;;;;11.40;2.80;;;6.90;99.90;;;;;;4992786;28;20045;-66
2023/12/22 06:51:27;;;;;;;10.57;2.85;;;6.80;99.90;;;;;;5004908;28;20116;-66
2023/12/22 06:53:57;;;;;;;15.50;3.22;;;6.80;99.90;;;;;;5005942;28;20046;-66
2023/12/22 06:56:28;;;;;;;9.30;2.85;;;6.80;99.90;;;;;;5007927;28;20050;-66
2023/12/22 06:58:57;;;;;;;11.95;2.85;;;6.80;99.90;;;;;;5007905;28;20069;-66
2023/12/22 07:01:31;;;;;;;14.45;3.28;;;6.70;99.90;;;;;;5007235;28;20062;-66
2023/12/22 07:04:02;;;;;;;15.15;2.60;;;6.70;99.90;;;;;;5009059;28;20092;-67
2023/12/22 07:06:30;;;;;;;16.70;3.22;;;6.70;99.90;;;;;;5009754;28;20088;-66
2023/12/22 07:09:12;;;;;;;11.13;2.90;;;6.70;99.90;;;;;;5007333;28;20048;-67
2023/12/22 07:11:43;;;;;;;13.10;3.03;;;6.70;99.90;;;;;;4991069;28;20052;-68
2023/12/22 07:14:09;;;;;;;15.30;3.13;;;6.70;99.90;;;;;;5007373;28;20042;-68
2023/12/22 07:16:36;;;;;;;16.45;2.67;;;6.70;99.90;;;;;;5008009;28;20457;-68
2023/12/22 07:19:04;;;;;;;13.43;2.55;;;6.70;99.90;;;;;;5008823;28;20046;-68
2023/12/22 07:21:31;;;;;;;11.35;2.40;;;6.60;99.90;;;;;;5008656;28;20071;-68
2023/12/22 07:24:01;;;;;;;9.88;2.10;;;6.60;99.90;;;;;;4992741;28;20045;-68
2023/12/22 07:26:27;;;;;;;10.75;2.42;;;6.60;99.90;;;;;;4991878;28;20057;-68
2023/12/22 07:28:54;;;;;;;11.95;2.83;;;6.50;99.90;;;;;;5006655;28;20046;-68
2023/12/22 07:31:20;;;;;;;19.15;3.38;;;6.50;99.90;;;;;;5010485;28;20074;-66
2023/12/22 07:33:47;;;;;;;10.48;2.38;;;6.50;99.90;;;;;;5010409;28;20061;-67
2023/12/22 07:36:14;;;;;;;10.48;2.30;;;6.40;99.90;;;;;;5010218;28;20141;-67
2023/12/22 07:38:40;;;;;;;13.25;2.55;;;6.40;99.90;;;;;;5010441;28;20136;-67
2023/12/22 07:41:08;;;;;;;13.88;2.90;;;6.40;99.90;;;;;;5010162;28;20149;-68
2023/12/22 07:43:35;;;;;;;16.65;3.25;;;6.40;99.90;;;;;;5010849;28;20050;-67
2023/12/22 07:46:03;;;;;;;13.57;2.90;;;6.30;99.90;;;;;;5011162;28;20064;-68
2023/12/22 07:48:29;;;;;;;14.20;3.53;;;6.30;99.90;;;;;;5010833;28;20382;-67
2023/12/22 07:50:56;;;;;;;16.30;3.13;;;6.30;99.90;;;;;;5010038;28;20054;-67
2023/12/22 07:53:23;;;;;;;18.05;3.65;;;6.30;99.90;;;;;;5010265;28;20359;-67
2023/12/22 07:55:49;;;;;;;15.07;2.92;;;6.30;99.90;;;;;;5009920;28;20136;-68
2023/12/22 07:58:17;;;;;;;16.77;3.25;;;6.30;99.90;;;;;;5010151;28;20060;-68
2023/12/22 08:00:46;;;;;;;10.52;2.42;;;6.30;99.90;;;;;;5010352;28;20053;-68
2023/12/22 08:03:12;;;;;;;10.18;2.55;;;6.30;99.90;;;;;;5011244;28;20046;-68
2023/12/22 08:05:38;;;;;;;13.90;3.15;;;6.40;99.90;;;;;;5011031;28;20080;-67
2023/12/22 08:08:05;;;;;;;14.63;3.03;;;6.40;99.90;;;;;;5010103;28;20145;-67
2023/12/22 08:10:32;;;;;;;15.55;2.78;;;6.40;99.90;;;;;;5010886;28;20072;-66
2023/12/22 08:12:58;;;;;;;11.18;2.55;;;6.40;99.90;;;;;;5010883;28;20046;-67
2023/12/22 08:15:24;;;;;;;11.38;2.40;;;6.40;99.90;;;;;;5009794;28;20065;-67
2023/12/22 08:17:51;;;;;;;15.27;2.95;;;6.40;99.90;;;;;;4993853;28;20053;-67
2023/12/22 08:20:19;;;;;;;11.30;2.47;;;6.40;99.90;;;;;;5009542;28;20141;-67
2023/12/22 08:22:53;;;;;;;10.80;2.17;;;6.40;99.90;;;;;;4992873;28;20382;-67
2023/12/22 08:25:22;;;;;;;15.75;3.25;;;6.40;99.90;;;;;;5009394;28;20054;-67
2023/12/22 08:27:48;;;;;;;11.10;2.30;;;6.40;99.90;;;;;;5009793;28;20437;-67
2023/12/22 08:30:15;;;;;;;10.68;2.50;;;6.40;99.90;;;;;;4990947;28;20050;-66
2023/12/22 08:32:42;;;;;;;7.72;2.13;;;6.40;99.90;;;;;;5000410;28;20366;-66
2023/12/22 08:35:09;;;;;;;7.25;2.03;;;6.40;99.90;;;;;;5005924;28;20064;-67
2023/12/22 08:37:35;;;;;;;11.02;2.30;;;6.40;99.90;;;;;;5001191;28;20054;-67
2023/12/22 08:40:02;;;;;;;10.07;2.63;;;6.40;99.90;;;;;;4990291;28;20050;-66
2023/12/22 08:42:30;;;;;;;11.68;2.72;;;6.40;99.90;;;;;;4989724;28;20140;-67
2023/12/22 08:44:56;;;;;;;11.85;2.60;;;6.40;99.90;;;;;;4995907;28;20065;-67
2023/12/22 08:47:23;;;;;;;14.13;3.08;;;6.40;99.90;;;;;;5006226;28;20046;-67
2023/12/22 08:49:49;;;;;;;11.75;2.80;;;6.30;99.90;;;;;;4989902;28;20070;-67
2023/12/22 08:52:15;;;;;;;7.07;2.30;;;6.30;99.90;;;;;;4989588;28;20099;-67
2023/12/22 08:54:41;;;;;;;9.65;2.28;;;6.30;99.90;;;;;;4993067;28;20045;-67
2023/12/22 08:57:09;;;;;;;9.60;2.20;;;6.20;99.90;;;;;;5025627;28;20065;-67
2023/12/22 08:59:35;;;;;;;13.57;3.13;;;6.20;99.90;;;;;;5009283;28;20108;-67
2023/12/22 09:02:01;;;;;;;8.20;2.22;;;6.20;99.90;;;;;;4993078;28;20335;-66
2023/12/22 09:04:28;;;;;;;10.85;3.03;;;6.20;99.90;;;;;;5009070;28;20057;-67
2023/12/22 09:06:54;;;;;;;11.93;2.58;;;6.10;99.90;;;;;;4992729;28;20042;-67
2023/12/22 09:09:21;;;;;;;11.40;3.67;;;6.10;99.90;;;;;;5010567;28;20546;-66
2023/12/22 09:11:48;;;;;;;6.93;2.38;;;6.20;99.90;;;;;;4992809;28;20060;-67
2023/12/22 09:14:14;;;;;;;13.65;3.42;;;6.10;99.90;;;;;;4993186;28;20094;-67
2023/12/22 09:16:42;;;;;;;9.88;3.28;;;6.10;99.90;;;;;;4992911;28;20061;-66
2023/12/22 09:19:09;;;;;;;9.50;2.20;;;6.10;99.90;;;;;;5009317;28;20331;-66
2023/12/22 09:21:35;;;;;;;7.63;1.85;;;6.10;99.90;;;;;;5009229;28;20090;-67
2023/12/22 09:24:01;;;;;;;10.05;2.80;;;6.10;99.90;;;;;;4992861;28;20045;-67
2023/12/22 09:26:28;;;;;;;6.32;1.77;;;6.10;99.90;;;;;;5009049;28;20053;-67
2023/12/22 09:28:55;;;;;;;10.52;2.13;;;6.10;99.90;;;;;;5009270;28;20053;-67
2023/12/22 09:31:22;;;;;;;10.80;2.33;;;6.10;99.90;;;;;;5009628;28;20065;-67
2023/12/22 09:33:48;;;;;;;8.85;2.30;;;6.10;99.90;;;;;;5013326;28;20088;-67
2023/12/22 09:36:15;;;;;;;12.50;2.65;;;6.00;99.90;;;;;;4996579;28;20136;-66
2023/12/22 09:38:41;;;;;;;6.70;1.88;;;6.10;99.90;;;;;;5013130;28;20058;-67
2023/12/22 09:41:08;;;;;;;8.20;2.13;;;6.10;99.90;;;;;;5012626;28;20053;-67
2023/12/22 09:43:37;;;;;;;9.23;2.00;;;6.10;99.90;;;;;;5012927;28;20053;-67
2023/12/22 09:46:05;;;;;;;9.70;2.10;;;6.10;99.90;;;;;;5012374;28;20096;-66
2023/12/22 09:48:33;;;;;;;7.47;2.08;;;6.10;99.90;;;;;;5012601;28;20060;-67
2023/12/22 09:51:01;;;;;;;5.40;1.90;;;6.10;99.90;;;;;;5012220;28;20050;-67
2023/12/22 09:53:31;;;;;;;4.22;1.60;;;6.10;99.90;;;;;;5012614;28;20409;-67
2023/12/22 09:55:59;;;;;;;6.90;1.70;;;6.10;99.90;;;;;;4996056;28;20070;-67
2023/12/22 09:58:25;;;;;;;3.08;1.17;;;6.20;99.90;;;;;;5012274;28;20486;-67
2023/12/22 10:00:53;;;;;;;6.97;2.28;;;6.30;99.90;;;;;;4996107;28;20450;-67
2023/12/22 10:03:21;;;;;;;5.53;1.80;;;6.30;99.90;;;;;;5012400;28;20050;-67
2023/12/22 10:05:47;;;;;;;5.75;1.90;;;6.30;99.90;;;;;;4995895;28;20345;-67
2023/12/22 10:08:15;;;;;;;5.85;1.70;;;6.30;99.90;;;;;;5012172;28;20054;-67
2023/12/22 10:10:43;;;;;;;5.65;1.90;;;6.20;99.90;;;;;;5012230;28;20462;-67
2023/12/22 10:13:10;;;;;;;2.00;1.10;;;6.20;99.90;;;;;;4976996;28;20129;-67
2023/12/22 10:15:41;;;;;;;2.03;0.98;;;6.20;99.90;;;;;;5003291;28;20072;-67
2023/12/22 10:18:09;;;;;;;2.97;0.98;;;6.20;99.90;;;;;;5012271;28;20050;-67
2023/12/22 10:20:36;;;;;;;1.25;0.77;;;6.20;99.90;;;;;;5011968;28;20050;-67
2023/12/22 10:23:03;;;;;;;2.88;0.95;;;6.10;99.90;;;;;;5012022;28;20046;-67
2023/12/22 10:25:30;;;;;;;2.97;0.98;;;6.20;99.90;;;;;;5011577;28;20050;-67
2023/12/22 10:27:56;;;;;;;2.72;0.90;;;6.20;99.90;;;;;;5011844;28;20060;-67
2023/12/22 10:30:26;;;;;;;2.38;0.70;;;6.20;99.90;;;;;;5013038;28;20057;-67
2023/12/22 10:32:52;;;;;;;1.52;0.70;;;6.20;99.90;;;;;;5011257;28;20061;-68
2023/12/22 10:35:23;;;;;;;1.17;0.70;;;6.20;99.90;;;;;;4995077;28;20061;-67
2023/12/22 10:37:53;;;;;;;2.15;0.77;;;6.30;99.90;;;;;;5008058;28;20057;-67
2023/12/22 10:40:20;;;;;;;2.50;0.77;;;6.30;99.90;;;;;;4992205;28;20062;-67
2023/12/22 10:42:46;;;;;;;2.08;0.70;;;6.40;99.90;;;;;;4991471;28;20061;-67
2023/12/22 10:45:13;;;;;;;3.40;1.05;;;6.40;99.90;;;;;;4999102;28;20054;-67
2023/12/22 10:47:40;;;;;;;2.00;1.10;;;6.40;99.90;;;;;;5011768;28;20374;-68
2023/12/22 10:50:06;;;;;;;1.92;1.00;;;6.40;99.90;;;;;;5011604;28;20156;-67
2023/12/22 10:52:34;;;;;;;2.60;0.77;;;6.40;99.90;;;;;;4995191;28;20363;-67
2023/12/22 10:55:00;;;;;;;2.58;1.02;;;6.50;99.90;;;;;;5011613;28;20156;-68
2023/12/22 10:57:30;;;;;;;2.28;0.90;;;6.50;99.90;;;;;;5012268;28;20046;-68
2023/12/22 10:59:59;;;;;;;2.60;1.00;;;6.50;99.90;;;;;;5011958;28;20227;-68
2023/12/22 11:02:31;;;;;;;2.40;1.00;;;6.50;99.90;;;;;;5011828;28;20053;-68
2023/12/22 11:05:05;;;;;;;1.40;0.75;;;6.50;99.90;;;;;;4995546;28;20065;-68
2023/12/22 11:07:37;;;;;;;3.35;1.27;;;6.50;99.90;;;;;;5011428;28;20050;-67
2023/12/22 11:10:06;;;;;;;3.42;1.20;;;6.50;99.90;;;;;;5011630;28;20443;-67
2023/12/22 11:12:36;;;;;;;1.60;0.65;;;6.60;99.90;;;;;;5011046;28;20053;-66
2023/12/22 11:15:05;;;;;;;2.28;0.90;;;6.60;99.90;;;;;;5011200;28;20060;-67
2023/12/22 11:17:34;;;;;;;5.78;1.42;;;6.60;99.90;;;;;;5011665;28;20080;-67
2023/12/22 11:20:01;;;;;;;2.20;1.00;;;6.60;99.90;;;;;;5011240;28;20458;-67
2023/12/22 11:22:31;;;;;;;2.33;0.88;;;6.50;99.90;;;;;;5010479;28;20411;-67
2023/12/22 11:25:00;;;;;;;2.47;1.05;;;6.60;99.90;;;;;;5009381;28;20042;-67
2023/12/22 11:27:28;;;;;;;2.95;0.77;;;6.60;99.90;;;;;;5011002;28;20046;-67
2023/12/22 11:29:55;;;;;;;3.92;1.02;;;6.60;99.90;;;;;;5010947;28;20060;-67
2023/12/22 11:32:21;;;;;;;1.15;0.63;;;6.60;99.90;;;;;;5010306;28;20050;-67
2023/12/22 11:34:48;;;;;;;5.10;1.00;;;6.60;99.90;;;;;;4994709;28;20052;-67
2023/12/22 11:37:16;;;;;;;2.28;0.90;;;6.70;99.90;;;;;;5002537;28;20454;-67
2023/12/22 11:39:43;;;;;;;3.83;1.05;;;6.70;99.90;;;;;;4991564;28;20061;-67
2023/12/22 11:42:26;;;;;;;2.47;0.80;;;6.70;99.90;;;;;;4990998;28;20053;-67
2023/12/22 11:44:55;;;;;;;3.85;0.88;;;6.70;99.90;;;;;;4995072;28;20102;-68
2023/12/22 11:47:25;;;;;;;2.70;1.10;;;6.80;99.90;;;;;;5010288;28;20144;-68
2023/12/22 11:49:52;;;;;;;8.48;2.13;;;6.80;99.90;;;;;;4994503;28;20052;-68
2023/12/22 11:52:25;;;;;;;1.42;0.73;;;6.90;99.90;;;;;;4993999;28;20096;-68
2023/12/22 11:54:54;;;;;;;3.33;1.10;;;6.90;99.90;;;;;;5009859;28;20354;-67
2023/12/22 11:57:40;;;;;;;4.50;1.33;;;6.90;99.90;;;;;;4994139;28;20497;-67
2023/12/22 12:00:10;;;;;;;4.32;1.00;;;6.80;99.90;;;;;;4994338;28;20212;-67
2023/12/22 12:02:39;;;;;;;4.47;1.10;;;6.90;99.90;;;;;;5010111;28;20049;-67
2023/12/22 12:05:08;;;;;;;2.65;0.95;;;6.80;99.90;;;;;;5010573;28;20094;-67
2023/12/22 12:07:41;;;;;;;3.95;0.88;;;6.90;99.90;;;;;;5010069;28;20045;-68
2023/12/22 12:10:08;;;;;;;2.00;1.00;;;6.90;99.90;;;;;;5010539;28;20633;-68
2023/12/22 12:12:36;;;;;;;4.07;0.93;;;6.90;99.90;;;;;;5010011;28;20054;-68
2023/12/22 12:15:12;;;;;;;3.63;1.10;;;6.90;99.90;;;;;;5010226;28;20042;-68
2023/12/22 12:17:40;;;;;;;3.22;1.35;;;6.90;99.90;;;;;;5010643;28;20054;-68
2023/12/22 12:20:09;;;;;;;3.35;1.20;;;6.90;99.90;;;;;;4994200;28;20066;-67
2023/12/22 12:22:38;;;;;;;2.13;0.95;;;6.90;99.90;;;;;;4993622;28;20046;-68
2023/12/22 12:25:11;;;;;;;4.03;1.23;;;6.90;99.90;;;;;;5009624;28;20046;-67
2023/12/22 12:27:38;;;;;;;2.70;0.90;;;6.90;99.90;;;;;;5009752;28;20041;-68
2023/12/22 12:30:13;;;;;;;4.57;1.30;;;7.00;99.90;;;;;;4994187;28;20133;-68
2023/12/22 12:32:44;;;;;;;4.25;1.70;;;6.90;99.90;;;;;;5006000;28;20054;-68
2023/12/22 12:35:11;;;;;;;4.65;1.15;;;6.90;99.90;;;;;;5012753;28;20053;-67
2023/12/22 12:37:38;;;;;;;7.80;1.33;;;7.00;99.90;;;;;;4998925;28;20058;-68
2023/12/22 12:40:08;;;;;;;4.47;1.20;;;7.00;99.90;;;;;;4990896;28;20054;-68
2023/12/22 12:42:36;;;;;;;2.40;0.82;;;7.00;99.90;;;;;;4993344;28;20077;-68
2023/12/22 12:45:07;;;;;;;7.28;1.45;;;7.00;99.90;;;;;;4999062;28;20042;-67
2023/12/22 12:47:34;;;;;;;3.58;1.10;;;7.00;99.90;;;;;;5008348;28;20045;-67
2023/12/22 12:50:00;;;;;;;3.38;1.00;;;7.00;99.90;;;;;;5007455;28;20366;-68
2023/12/22 12:52:27;;;;;;;2.15;0.90;;;7.10;99.90;;;;;;5009484;28;20053;-68